首页
METAR-TAF:

METAR-TAF

机场 :

法阿國際機場

大溪地, 法属波利尼西亚

纬度: 17-33S, 经度: 149-37W, 海拔: 2米

当前天气观测

该预报发布于11分钟前的00:00 UTC
风速6节,风向东北
温度 29°C
湿度 62%
气压 1014 hPa
能见度10公里或以上
少量云层高于5600英尺
散云层高于13000英尺

METAR: NTAA 170000Z 04006KT 9999 FEW056 SCT130 29/21 Q1014 NOSIG

时间: 14:11 (00:11 UTC)

预报

该预报发布于1小时和11分钟前的23:00 UTC
预报有效从17日的 00点(UTC)到 18日的 06点(UTC)
风速5节,风向多变
能见度10公里或以上
少量云层高于2300英尺

TAF: NTAA 162300Z 1700/1806 VRB05KT 9999 FEW023

超过4000个机场的气象观测和天气预报(METAR&TAF报告)。

可查询的气象台以黄色和红色小点在地图上表示。

将鼠标移到小点上方,可查看气象台名称。

然后点击查看天气观测和预报。

如需切换地图:点击带黑十字的绿色按钮放大地图;点击带横线的绿色按钮缩小地图;或者点击绿色箭头查看邻近地区的地图。


METAR-TAF: